sensor_id;sensor_type;location;lat;lon;timestamp;temperature;humidity
80540;DHT22;69869;48.036;15.780;2024-01-15T00:00:17;10.60;74.60
80540;DHT22;69869;48.036;15.780;2024-01-15T00:02:43;10.60;74.60
80540;DHT22;69869;48.036;15.780;2024-01-15T00:05:09;10.60;74.50
80540;DHT22;69869;48.036;15.780;2024-01-15T00:07:35;10.60;74.60
80540;DHT22;69869;48.036;15.780;2024-01-15T00:10:01;10.60;74.60
80540;DHT22;69869;48.036;15.780;2024-01-15T00:12:27;10.60;74.50
80540;DHT22;69869;48.036;15.780;2024-01-15T00:14:53;10.60;74.60
80540;DHT22;69869;48.036;15.780;2024-01-15T00:17:19;10.60;74.50
80540;DHT22;69869;48.036;15.780;2024-01-15T00:19:45;10.60;74.60
80540;DHT22;69869;48.036;15.780;2024-01-15T00:22:10;10.60;74.50
80540;DHT22;69869;48.036;15.780;2024-01-15T00:24:36;10.60;74.50
80540;DHT22;69869;48.036;15.780;2024-01-15T00:27:01;10.60;74.50
80540;DHT22;69869;48.036;15.780;2024-01-15T00:29:27;10.60;74.50
80540;DHT22;69869;48.036;15.780;2024-01-15T00:31:53;10.60;74.60
80540;DHT22;69869;48.036;15.780;2024-01-15T00:34:18;10.60;74.60
80540;DHT22;69869;48.036;15.780;2024-01-15T00:36:44;10.60;74.60
80540;DHT22;69869;48.036;15.780;2024-01-15T00:39:10;10.60;74.60
80540;DHT22;69869;48.036;15.780;2024-01-15T00:41:36;10.60;74.60
80540;DHT22;69869;48.036;15.780;2024-01-15T00:44:02;10.60;74.60
80540;DHT22;69869;48.036;15.780;2024-01-15T00:46:28;10.60;74.70
80540;DHT22;69869;48.036;15.780;2024-01-15T00:48:54;10.50;74.60
80540;DHT22;69869;48.036;15.780;2024-01-15T00:51:20;10.60;74.70
80540;DHT22;69869;48.036;15.780;2024-01-15T00:53:45;10.60;74.70
80540;DHT22;69869;48.036;15.780;2024-01-15T00:56:11;10.60;74.60
80540;DHT22;69869;48.036;15.780;2024-01-15T00:58:36;10.60;74.60
80540;DHT22;69869;48.036;15.780;2024-01-15T01:01:02;10.60;74.60
80540;DHT22;69869;48.036;15.780;2024-01-15T01:03:28;10.60;74.70
80540;DHT22;69869;48.036;15.780;2024-01-15T01:05:53;10.60;74.60
80540;DHT22;69869;48.036;15.780;2024-01-15T01:08:19;10.60;74.60
80540;DHT22;69869;48.036;15.780;2024-01-15T01:10:45;10.60;74.60
80540;DHT22;69869;48.036;15.780;2024-01-15T01:13:10;10.60;74.60
80540;DHT22;69869;48.036;15.780;2024-01-15T01:15:36;10.60;74.60
80540;DHT22;69869;48.036;15.780;2024-01-15T01:18:02;10.60;74.60
80540;DHT22;69869;48.036;15.780;2024-01-15T01:20:28;10.60;74.60
80540;DHT22;69869;48.036;15.780;2024-01-15T01:22:54;10.60;74.50
80540;DHT22;69869;48.036;15.780;2024-01-15T01:25:19;10.60;74.50
80540;DHT22;69869;48.036;15.780;2024-01-15T01:27:45;10.60;74.60
80540;DHT22;69869;48.036;15.780;2024-01-15T01:30:11;10.60;74.50
80540;DHT22;69869;48.036;15.780;2024-01-15T01:32:36;10.60;74.50
80540;DHT22;69869;48.036;15.780;2024-01-15T01:35:02;10.60;74.60
80540;DHT22;69869;48.036;15.780;2024-01-15T01:37:28;10.50;74.60
80540;DHT22;69869;48.036;15.780;2024-01-15T01:39:53;10.60;74.60
80540;DHT22;69869;48.036;15.780;2024-01-15T01:42:19;10.60;74.70
80540;DHT22;69869;48.036;15.780;2024-01-15T01:44:45;10.60;74.70
80540;DHT22;69869;48.036;15.780;2024-01-15T01:47:10;10.60;74.70
80540;DHT22;69869;48.036;15.780;2024-01-15T01:49:37;10.60;74.60
80540;DHT22;69869;48.036;15.780;2024-01-15T01:52:05;10.60;74.70
80540;DHT22;69869;48.036;15.780;2024-01-15T01:54:32;10.60;74.70
80540;DHT22;69869;48.036;15.780;2024-01-15T01:56:59;10.60;74.60
80540;DHT22;69869;48.036;15.780;2024-01-15T01:59:28;10.50;74.60
80540;DHT22;69869;48.036;15.780;2024-01-15T02:01:57;10.60;74.60
80540;DHT22;69869;48.036;15.780;2024-01-15T02:04:24;10.50;74.60
80540;DHT22;69869;48.036;15.780;2024-01-15T02:06:51;10.50;74.60
80540;DHT22;69869;48.036;15.780;2024-01-15T02:09:20;10.50;74.70
80540;DHT22;69869;48.036;15.780;2024-01-15T02:11:49;10.50;74.60
80540;DHT22;69869;48.036;15.780;2024-01-15T02:14:15;10.60;74.60
80540;DHT22;69869;48.036;15.780;2024-01-15T02:16:40;10.50;74.60
80540;DHT22;69869;48.036;15.780;2024-01-15T02:19:06;10.50;74.60
80540;DHT22;69869;48.036;15.780;2024-01-15T02:21:32;10.60;74.70
80540;DHT22;69869;48.036;15.780;2024-01-15T02:23:58;10.60;74.60
80540;DHT22;69869;48.036;15.780;2024-01-15T02:26:24;10.60;74.70
80540;DHT22;69869;48.036;15.780;2024-01-15T02:28:50;10.50;74.50
80540;DHT22;69869;48.036;15.780;2024-01-15T02:31:16;10.50;74.60
80540;DHT22;69869;48.036;15.780;2024-01-15T02:33:43;10.50;74.60
80540;DHT22;69869;48.036;15.780;2024-01-15T02:36:09;10.50;74.60
80540;DHT22;69869;48.036;15.780;2024-01-15T02:38:35;10.60;74.60
80540;DHT22;69869;48.036;15.780;2024-01-15T02:41:00;10.60;74.60
80540;DHT22;69869;48.036;15.780;2024-01-15T02:43:26;10.50;74.60
80540;DHT22;69869;48.036;15.780;2024-01-15T02:45:52;10.60;74.60
80540;DHT22;69869;48.036;15.780;2024-01-15T02:48:17;10.60;74.50
80540;DHT22;69869;48.036;15.780;2024-01-15T02:50:43;10.60;74.50
80540;DHT22;69869;48.036;15.780;2024-01-15T02:53:08;10.60;74.50
80540;DHT22;69869;48.036;15.780;2024-01-15T02:55:34;10.60;74.50
80540;DHT22;69869;48.036;15.780;2024-01-15T02:58:00;10.50;74.40
80540;DHT22;69869;48.036;15.780;2024-01-15T03:00:25;10.60;74.50
80540;DHT22;69869;48.036;15.780;2024-01-15T03:02:51;10.50;74.50
80540;DHT22;69869;48.036;15.780;2024-01-15T03:05:17;10.60;74.60
80540;DHT22;69869;48.036;15.780;2024-01-15T03:07:43;10.60;74.70
80540;DHT22;69869;48.036;15.780;2024-01-15T03:10:09;10.50;74.60
80540;DHT22;69869;48.036;15.780;2024-01-15T03:12:35;10.60;74.60
80540;DHT22;69869;48.036;15.780;2024-01-15T03:15:00;10.60;74.60
80540;DHT22;69869;48.036;15.780;2024-01-15T03:17:26;10.60;74.60
80540;DHT22;69869;48.036;15.780;2024-01-15T03:19:52;10.60;74.60
80540;DHT22;69869;48.036;15.780;2024-01-15T03:22:17;10.50;74.60
80540;DHT22;69869;48.036;15.780;2024-01-15T03:24:44;10.50;74.70
80540;DHT22;69869;48.036;15.780;2024-01-15T03:27:09;10.60;74.70
80540;DHT22;69869;48.036;15.780;2024-01-15T03:29:35;10.60;74.70
80540;DHT22;69869;48.036;15.780;2024-01-15T03:32:01;10.60;74.70
80540;DHT22;69869;48.036;15.780;2024-01-15T03:34:26;10.60;74.50
80540;DHT22;69869;48.036;15.780;2024-01-15T03:36:52;10.50;74.50
80540;DHT22;69869;48.036;15.780;2024-01-15T03:39:18;10.60;74.60
80540;DHT22;69869;48.036;15.780;2024-01-15T03:41:43;10.60;74.60
80540;DHT22;69869;48.036;15.780;2024-01-15T03:44:09;10.50;74.50
80540;DHT22;69869;48.036;15.780;2024-01-15T03:46:34;10.50;74.60
80540;DHT22;69869;48.036;15.780;2024-01-15T03:49:00;10.50;74.70
80540;DHT22;69869;48.036;15.780;2024-01-15T03:51:26;10.50;74.70
80540;DHT22;69869;48.036;15.780;2024-01-15T03:53:51;10.50;74.60
80540;DHT22;69869;48.036;15.780;2024-01-15T03:56:17;10.50;74.70
80540;DHT22;69869;48.036;15.780;2024-01-15T03:58:43;10.60;74.70
80540;DHT22;69869;48.036;15.780;2024-01-15T04:01:11;10.50;74.60
80540;DHT22;69869;48.036;15.780;2024-01-15T04:03:37;10.50;74.70
80540;DHT22;69869;48.036;15.780;2024-01-15T04:06:04;10.50;74.70
80540;DHT22;69869;48.036;15.780;2024-01-15T04:08:30;10.50;74.70
80540;DHT22;69869;48.036;15.780;2024-01-15T04:10:56;10.50;74.70
80540;DHT22;69869;48.036;15.780;2024-01-15T04:13:22;10.50;74.70
80540;DHT22;69869;48.036;15.780;2024-01-15T04:15:48;10.50;74.70
80540;DHT22;69869;48.036;15.780;2024-01-15T04:18:16;10.50;74.70
80540;DHT22;69869;48.036;15.780;2024-01-15T04:20:42;10.50;74.70
80540;DHT22;69869;48.036;15.780;2024-01-15T04:23:08;10.50;74.70
80540;DHT22;69869;48.036;15.780;2024-01-15T04:25:34;10.60;74.80
80540;DHT22;69869;48.036;15.780;2024-01-15T04:27:59;10.60;74.70
80540;DHT22;69869;48.036;15.780;2024-01-15T04:30:25;10.50;74.70
80540;DHT22;69869;48.036;15.780;2024-01-15T04:32:51;10.50;74.50
80540;DHT22;69869;48.036;15.780;2024-01-15T04:35:16;10.60;74.60
80540;DHT22;69869;48.036;15.780;2024-01-15T04:37:42;10.60;74.40
80540;DHT22;69869;48.036;15.780;2024-01-15T04:40:08;10.50;74.30
80540;DHT22;69869;48.036;15.780;2024-01-15T04:42:35;10.50;74.50
80540;DHT22;69869;48.036;15.780;2024-01-15T04:45:00;10.50;74.50
80540;DHT22;69869;48.036;15.780;2024-01-15T04:47:26;10.50;74.40
80540;DHT22;69869;48.036;15.780;2024-01-15T04:49:51;10.50;74.50
80540;DHT22;69869;48.036;15.780;2024-01-15T04:52:17;10.50;74.40
80540;DHT22;69869;48.036;15.780;2024-01-15T04:54:42;10.50;74.40
80540;DHT22;69869;48.036;15.780;2024-01-15T04:57:08;10.50;74.20
80540;DHT22;69869;48.036;15.780;2024-01-15T04:59:34;10.60;74.40
80540;DHT22;69869;48.036;15.780;2024-01-15T05:01:59;10.50;74.30
80540;DHT22;69869;48.036;15.780;2024-01-15T05:04:25;10.50;74.30
80540;DHT22;69869;48.036;15.780;2024-01-15T05:06:51;10.50;74.60
80540;DHT22;69869;48.036;15.780;2024-01-15T05:09:16;10.60;74.50
80540;DHT22;69869;48.036;15.780;2024-01-15T05:11:43;10.50;74.90
80540;DHT22;69869;48.036;15.780;2024-01-15T05:14:09;10.50;74.30
80540;DHT22;69869;48.036;15.780;2024-01-15T05:16:35;10.50;74.40
80540;DHT22;69869;48.036;15.780;2024-01-15T05:19:00;10.50;74.30
80540;DHT22;69869;48.036;15.780;2024-01-15T05:21:26;10.50;74.30
80540;DHT22;69869;48.036;15.780;2024-01-15T05:23:51;10.50;74.30
80540;DHT22;69869;48.036;15.780;2024-01-15T05:26:17;10.50;74.40
80540;DHT22;69869;48.036;15.780;2024-01-15T05:28:43;10.50;74.50
80540;DHT22;69869;48.036;15.780;2024-01-15T05:31:09;10.50;74.50
80540;DHT22;69869;48.036;15.780;2024-01-15T05:33:34;10.50;74.30
80540;DHT22;69869;48.036;15.780;2024-01-15T05:36:00;10.60;74.40
80540;DHT22;69869;48.036;15.780;2024-01-15T05:38:27;10.60;74.30
80540;DHT22;69869;48.036;15.780;2024-01-15T05:40:53;10.50;74.30
80540;DHT22;69869;48.036;15.780;2024-01-15T05:43:19;10.50;74.40
80540;DHT22;69869;48.036;15.780;2024-01-15T05:45:44;10.50;74.50
80540;DHT22;69869;48.036;15.780;2024-01-15T05:48:11;10.50;74.30
80540;DHT22;69869;48.036;15.780;2024-01-15T05:50:37;10.50;74.40
80540;DHT22;69869;48.036;15.780;2024-01-15T05:53:03;10.50;74.30
80540;DHT22;69869;48.036;15.780;2024-01-15T05:55:29;10.50;74.50
80540;DHT22;69869;48.036;15.780;2024-01-15T05:57:54;10.50;74.40
80540;DHT22;69869;48.036;15.780;2024-01-15T06:00:20;10.50;74.90
80540;DHT22;69869;48.036;15.780;2024-01-15T06:02:46;10.60;74.40
80540;DHT22;69869;48.036;15.780;2024-01-15T06:05:11;10.60;74.40
80540;DHT22;69869;48.036;15.780;2024-01-15T06:07:37;10.50;74.30
80540;DHT22;69869;48.036;15.780;2024-01-15T06:10:03;10.50;74.30
80540;DHT22;69869;48.036;15.780;2024-01-15T06:12:30;10.60;74.50
80540;DHT22;69869;48.036;15.780;2024-01-15T06:14:56;10.50;74.40
80540;DHT22;69869;48.036;15.780;2024-01-15T06:17:22;10.60;74.60
80540;DHT22;69869;48.036;15.780;2024-01-15T06:19:47;10.60;74.60
80540;DHT22;69869;48.036;15.780;2024-01-15T06:22:13;10.60;74.50
80540;DHT22;69869;48.036;15.780;2024-01-15T06:24:38;10.60;74.50
80540;DHT22;69869;48.036;15.780;2024-01-15T06:27:04;10.50;74.60
80540;DHT22;69869;48.036;15.780;2024-01-15T06:29:30;10.60;74.70
80540;DHT22;69869;48.036;15.780;2024-01-15T06:31:55;10.60;74.60
80540;DHT22;69869;48.036;15.780;2024-01-15T06:34:21;10.60;74.60
80540;DHT22;69869;48.036;15.780;2024-01-15T06:36:47;10.60;74.70
80540;DHT22;69869;48.036;15.780;2024-01-15T06:39:12;10.50;74.60
80540;DHT22;69869;48.036;15.780;2024-01-15T06:41:38;10.50;74.60
80540;DHT22;69869;48.036;15.780;2024-01-15T06:44:09;10.50;74.60
80540;DHT22;69869;48.036;15.780;2024-01-15T06:46:35;10.50;74.50
80540;DHT22;69869;48.036;15.780;2024-01-15T06:49:01;10.50;74.50
80540;DHT22;69869;48.036;15.780;2024-01-15T06:51:27;10.50;74.60
80540;DHT22;69869;48.036;15.780;2024-01-15T06:53:52;10.60;74.60
80540;DHT22;69869;48.036;15.780;2024-01-15T06:56:18;10.50;74.60
80540;DHT22;69869;48.036;15.780;2024-01-15T06:58:44;10.50;74.70
80540;DHT22;69869;48.036;15.780;2024-01-15T07:01:09;10.50;74.70
80540;DHT22;69869;48.036;15.780;2024-01-15T07:03:35;10.60;74.70
80540;DHT22;69869;48.036;15.780;2024-01-15T07:06:01;10.50;74.40
80540;DHT22;69869;48.036;15.780;2024-01-15T07:08:29;10.50;74.50
80540;DHT22;69869;48.036;15.780;2024-01-15T07:10:55;10.50;74.50
80540;DHT22;69869;48.036;15.780;2024-01-15T07:13:21;10.60;74.70
80540;DHT22;69869;48.036;15.780;2024-01-15T07:15:46;10.60;74.70
80540;DHT22;69869;48.036;15.780;2024-01-15T07:18:12;10.60;74.80
80540;DHT22;69869;48.036;15.780;2024-01-15T07:20:38;10.50;74.60
80540;DHT22;69869;48.036;15.780;2024-01-15T07:23:04;10.60;74.70
80540;DHT22;69869;48.036;15.780;2024-01-15T07:25:29;10.60;74.60
80540;DHT22;69869;48.036;15.780;2024-01-15T07:27:55;10.60;74.60
80540;DHT22;69869;48.036;15.780;2024-01-15T07:30:21;10.60;74.60
80540;DHT22;69869;48.036;15.780;2024-01-15T07:32:47;10.60;74.60
80540;DHT22;69869;48.036;15.780;2024-01-15T07:35:14;10.50;74.60
80540;DHT22;69869;48.036;15.780;2024-01-15T07:37:40;10.50;74.70
80540;DHT22;69869;48.036;15.780;2024-01-15T07:40:06;10.60;74.70
80540;DHT22;69869;48.036;15.780;2024-01-15T07:42:34;10.60;74.70
80540;DHT22;69869;48.036;15.780;2024-01-15T07:45:00;10.60;74.70
80540;DHT22;69869;48.036;15.780;2024-01-15T07:47:26;10.60;75.30
80540;DHT22;69869;48.036;15.780;2024-01-15T07:49:53;10.60;74.70
80540;DHT22;69869;48.036;15.780;2024-01-15T07:52:18;10.60;74.70
80540;DHT22;69869;48.036;15.780;2024-01-15T07:54:44;10.60;74.70
80540;DHT22;69869;48.036;15.780;2024-01-15T07:57:10;10.60;74.70
80540;DHT22;69869;48.036;15.780;2024-01-15T07:59:36;10.60;74.70
80540;DHT22;69869;48.036;15.780;2024-01-15T08:02:02;10.60;74.80
80540;DHT22;69869;48.036;15.780;2024-01-15T08:04:28;10.60;74.70
80540;DHT22;69869;48.036;15.780;2024-01-15T08:06:53;10.60;74.70
80540;DHT22;69869;48.036;15.780;2024-01-15T08:09:19;10.60;74.70
80540;DHT22;69869;48.036;15.780;2024-01-15T08:11:45;10.60;74.70
80540;DHT22;69869;48.036;15.780;2024-01-15T08:14:11;10.60;74.70
80540;DHT22;69869;48.036;15.780;2024-01-15T08:16:37;10.60;74.70
80540;DHT22;69869;48.036;15.780;2024-01-15T08:19:03;10.60;74.60
80540;DHT22;69869;48.036;15.780;2024-01-15T08:21:29;10.60;74.60
80540;DHT22;69869;48.036;15.780;2024-01-15T08:23:59;10.50;74.60
80540;DHT22;69869;48.036;15.780;2024-01-15T08:26:28;10.60;74.70
80540;DHT22;69869;48.036;15.780;2024-01-15T08:28:54;10.60;74.70
80540;DHT22;69869;48.036;15.780;2024-01-15T08:31:20;10.60;74.70
80540;DHT22;69869;48.036;15.780;2024-01-15T08:33:45;10.60;74.70
80540;DHT22;69869;48.036;15.780;2024-01-15T08:36:11;10.60;74.70
80540;DHT22;69869;48.036;15.780;2024-01-15T08:38:37;10.60;74.70
80540;DHT22;69869;48.036;15.780;2024-01-15T08:41:03;10.50;74.70
80540;DHT22;69869;48.036;15.780;2024-01-15T08:43:28;10.60;74.80
80540;DHT22;69869;48.036;15.780;2024-01-15T08:45:56;10.60;74.70
80540;DHT22;69869;48.036;15.780;2024-01-15T08:48:22;10.60;74.70
80540;DHT22;69869;48.036;15.780;2024-01-15T08:50:48;10.60;74.70
80540;DHT22;69869;48.036;15.780;2024-01-15T08:53:14;10.60;74.70
80540;DHT22;69869;48.036;15.780;2024-01-15T08:55:40;10.60;74.80
80540;DHT22;69869;48.036;15.780;2024-01-15T08:58:07;10.50;74.70
80540;DHT22;69869;48.036;15.780;2024-01-15T09:00:33;10.60;74.70
80540;DHT22;69869;48.036;15.780;2024-01-15T09:02:59;10.50;74.70
80540;DHT22;69869;48.036;15.780;2024-01-15T09:05:25;10.60;74.70
80540;DHT22;69869;48.036;15.780;2024-01-15T09:07:50;10.60;74.60
80540;DHT22;69869;48.036;15.780;2024-01-15T09:10:18;10.60;74.70
80540;DHT22;69869;48.036;15.780;2024-01-15T09:12:43;10.60;74.70
80540;DHT22;69869;48.036;15.780;2024-01-15T09:15:09;10.60;74.70
80540;DHT22;69869;48.036;15.780;2024-01-15T09:17:35;10.60;74.70
80540;DHT22;69869;48.036;15.780;2024-01-15T09:20:01;10.60;74.70
80540;DHT22;69869;48.036;15.780;2024-01-15T09:22:27;10.50;74.60
80540;DHT22;69869;48.036;15.780;2024-01-15T09:24:52;10.60;74.70
80540;DHT22;69869;48.036;15.780;2024-01-15T09:27:18;10.60;74.70
80540;DHT22;69869;48.036;15.780;2024-01-15T09:29:43;10.50;74.70
80540;DHT22;69869;48.036;15.780;2024-01-15T09:32:11;10.60;74.70
80540;DHT22;69869;48.036;15.780;2024-01-15T09:34:38;10.60;74.70
80540;DHT22;69869;48.036;15.780;2024-01-15T09:37:04;10.60;74.70
80540;DHT22;69869;48.036;15.780;2024-01-15T09:39:30;10.50;74.60
80540;DHT22;69869;48.036;15.780;2024-01-15T09:41:57;10.60;74.70
80540;DHT22;69869;48.036;15.780;2024-01-15T09:44:23;10.60;74.80
80540;DHT22;69869;48.036;15.780;2024-01-15T09:46:49;10.60;74.70
80540;DHT22;69869;48.036;15.780;2024-01-15T09:49:17;10.60;74.70
80540;DHT22;69869;48.036;15.780;2024-01-15T09:51:43;10.60;74.70
80540;DHT22;69869;48.036;15.780;2024-01-15T09:54:09;10.60;74.70
80540;DHT22;69869;48.036;15.780;2024-01-15T09:56:35;10.50;74.70
80540;DHT22;69869;48.036;15.780;2024-01-15T09:59:01;10.60;74.80
80540;DHT22;69869;48.036;15.780;2024-01-15T10:01:29;10.60;74.70
80540;DHT22;69869;48.036;15.780;2024-01-15T10:03:56;10.60;74.70
80540;DHT22;69869;48.036;15.780;2024-01-15T10:06:22;10.60;74.70
80540;DHT22;69869;48.036;15.780;2024-01-15T10:08:49;10.60;74.70
80540;DHT22;69869;48.036;15.780;2024-01-15T10:11:15;10.60;74.80
80540;DHT22;69869;48.036;15.780;2024-01-15T10:13:43;10.60;74.90
80540;DHT22;69869;48.036;15.780;2024-01-15T10:16:09;10.60;74.80
80540;DHT22;69869;48.036;15.780;2024-01-15T10:18:35;10.60;74.80
80540;DHT22;69869;48.036;15.780;2024-01-15T10:21:03;10.50;74.70
80540;DHT22;69869;48.036;15.780;2024-01-15T10:23:29;10.50;74.70
80540;DHT22;69869;48.036;15.780;2024-01-15T10:25:57;10.60;74.80
80540;DHT22;69869;48.036;15.780;2024-01-15T10:28:26;10.60;74.80
80540;DHT22;69869;48.036;15.780;2024-01-15T10:30:55;10.60;74.70
80540;DHT22;69869;48.036;15.780;2024-01-15T10:33:23;10.50;74.80
80540;DHT22;69869;48.036;15.780;2024-01-15T10:35:56;10.60;74.90
80540;DHT22;69869;48.036;15.780;2024-01-15T10:38:22;10.60;75.00
80540;DHT22;69869;48.036;15.780;2024-01-15T10:40:51;10.60;75.00
80540;DHT22;69869;48.036;15.780;2024-01-15T10:43:17;10.50;74.90
80540;DHT22;69869;48.036;15.780;2024-01-15T10:45:47;10.50;74.90
80540;DHT22;69869;48.036;15.780;2024-01-15T10:48:13;10.60;75.00
80540;DHT22;69869;48.036;15.780;2024-01-15T10:50:39;10.60;74.90
80540;DHT22;69869;48.036;15.780;2024-01-15T10:53:05;10.50;74.80
80540;DHT22;69869;48.036;15.780;2024-01-15T10:55:35;10.60;75.00
80540;DHT22;69869;48.036;15.780;2024-01-15T10:58:01;10.60;74.90
80540;DHT22;69869;48.036;15.780;2024-01-15T11:00:29;10.60;75.00
80540;DHT22;69869;48.036;15.780;2024-01-15T11:02:55;10.60;75.00
80540;DHT22;69869;48.036;15.780;2024-01-15T11:05:24;10.50;75.00
80540;DHT22;69869;48.036;15.780;2024-01-15T11:07:50;10.50;75.00
80540;DHT22;69869;48.036;15.780;2024-01-15T11:10:39;10.60;75.10
80540;DHT22;69869;48.036;15.780;2024-01-15T11:15:59;10.60;75.00
80540;DHT22;69869;48.036;15.780;2024-01-15T11:18:39;10.60;75.00
80540;DHT22;69869;48.036;15.780;2024-01-15T11:26:31;10.60;75.00
80540;DHT22;69869;48.036;15.780;2024-01-15T11:28:59;10.60;75.10
80540;DHT22;69869;48.036;15.780;2024-01-15T11:31:29;10.60;75.10
80540;DHT22;69869;48.036;15.780;2024-01-15T11:33:54;10.50;75.00
80540;DHT22;69869;48.036;15.780;2024-01-15T11:36:46;10.50;75.00
80540;DHT22;69869;48.036;15.780;2024-01-15T11:41:59;10.60;75.00
80540;DHT22;69869;48.036;15.780;2024-01-15T11:44:26;10.60;75.00
80540;DHT22;69869;48.036;15.780;2024-01-15T11:47:02;10.60;75.10
80540;DHT22;69869;48.036;15.780;2024-01-15T11:52:19;10.60;75.00
80540;DHT22;69869;48.036;15.780;2024-01-15T11:55:07;10.50;75.00
80540;DHT22;69869;48.036;15.780;2024-01-15T11:57:52;10.50;75.00
80540;DHT22;69869;48.036;15.780;2024-01-15T12:00:20;10.60;75.10
80540;DHT22;69869;48.036;15.780;2024-01-15T12:02:47;10.50;75.10
80540;DHT22;69869;48.036;15.780;2024-01-15T12:05:16;10.50;75.10
80540;DHT22;69869;48.036;15.780;2024-01-15T12:07:42;10.60;75.20
80540;DHT22;69869;48.036;15.780;2024-01-15T12:15:16;10.60;75.10
80540;DHT22;69869;48.036;15.780;2024-01-15T12:17:41;10.60;75.10
80540;DHT22;69869;48.036;15.780;2024-01-15T12:20:07;10.60;75.10
80540;DHT22;69869;48.036;15.780;2024-01-15T12:22:33;10.50;75.10
80540;DHT22;69869;48.036;15.780;2024-01-15T12:24:59;10.60;75.10
80540;DHT22;69869;48.036;15.780;2024-01-15T12:27:25;10.50;75.10
80540;DHT22;69869;48.036;15.780;2024-01-15T12:29:53;10.60;75.10
80540;DHT22;69869;48.036;15.780;2024-01-15T12:32:19;10.60;75.10
80540;DHT22;69869;48.036;15.780;2024-01-15T12:34:44;10.60;75.10
80540;DHT22;69869;48.036;15.780;2024-01-15T12:37:11;10.50;75.10
80540;DHT22;69869;48.036;15.780;2024-01-15T12:39:37;10.50;75.00
80540;DHT22;69869;48.036;15.780;2024-01-15T12:42:03;10.60;75.20
80540;DHT22;69869;48.036;15.780;2024-01-15T12:44:31;10.60;75.10
80540;DHT22;69869;48.036;15.780;2024-01-15T12:46:57;10.60;75.10
80540;DHT22;69869;48.036;15.780;2024-01-15T12:49:23;10.50;75.10
80540;DHT22;69869;48.036;15.780;2024-01-15T12:51:57;10.50;75.10
80540;DHT22;69869;48.036;15.780;2024-01-15T12:54:23;10.60;75.80
80540;DHT22;69869;48.036;15.780;2024-01-15T12:56:50;10.60;75.30
80540;DHT22;69869;48.036;15.780;2024-01-15T12:59:16;10.60;75.20
80540;DHT22;69869;48.036;15.780;2024-01-15T13:01:42;10.60;75.30
80540;DHT22;69869;48.036;15.780;2024-01-15T13:04:08;10.60;75.20
80540;DHT22;69869;48.036;15.780;2024-01-15T13:06:37;10.60;75.20
80540;DHT22;69869;48.036;15.780;2024-01-15T13:09:03;10.60;75.80
80540;DHT22;69869;48.036;15.780;2024-01-15T13:11:32;10.50;75.10
80540;DHT22;69869;48.036;15.780;2024-01-15T13:13:58;10.60;75.20
80540;DHT22;69869;48.036;15.780;2024-01-15T13:16:24;10.50;75.10
80540;DHT22;69869;48.036;15.780;2024-01-15T13:18:52;10.60;75.30
80540;DHT22;69869;48.036;15.780;2024-01-15T13:21:18;10.60;75.30
80540;DHT22;69869;48.036;15.780;2024-01-15T13:23:43;10.60;75.30
80540;DHT22;69869;48.036;15.780;2024-01-15T13:26:09;10.60;75.30
80540;DHT22;69869;48.036;15.780;2024-01-15T13:28:35;10.50;75.10
80540;DHT22;69869;48.036;15.780;2024-01-15T13:31:00;10.60;75.20
80540;DHT22;69869;48.036;15.780;2024-01-15T13:33:26;10.60;75.00
80540;DHT22;69869;48.036;15.780;2024-01-15T13:35:52;10.60;75.00
80540;DHT22;69869;48.036;15.780;2024-01-15T13:38:17;10.60;75.10
80540;DHT22;69869;48.036;15.780;2024-01-15T13:40:43;10.60;75.10
80540;DHT22;69869;48.036;15.780;2024-01-15T13:43:12;10.60;75.20
80540;DHT22;69869;48.036;15.780;2024-01-15T13:45:41;10.60;75.30
80540;DHT22;69869;48.036;15.780;2024-01-15T13:48:06;10.60;75.20
80540;DHT22;69869;48.036;15.780;2024-01-15T13:50:34;10.60;75.20
80540;DHT22;69869;48.036;15.780;2024-01-15T13:53:01;10.50;75.20
80540;DHT22;69869;48.036;15.780;2024-01-15T13:55:27;10.60;75.30
80540;DHT22;69869;48.036;15.780;2024-01-15T13:57:54;10.60;75.40
80540;DHT22;69869;48.036;15.780;2024-01-15T14:00:20;10.60;75.40
80540;DHT22;69869;48.036;15.780;2024-01-15T14:02:46;10.60;75.20
80540;DHT22;69869;48.036;15.780;2024-01-15T14:05:12;10.60;75.10
80540;DHT22;69869;48.036;15.780;2024-01-15T14:07:41;10.60;75.20
80540;DHT22;69869;48.036;15.780;2024-01-15T14:10:10;10.60;75.20
80540;DHT22;69869;48.036;15.780;2024-01-15T14:12:35;10.60;75.20
80540;DHT22;69869;48.036;15.780;2024-01-15T14:15:02;10.60;75.10
80540;DHT22;69869;48.036;15.780;2024-01-15T14:17:29;10.60;75.10
80540;DHT22;69869;48.036;15.780;2024-01-15T14:19:55;10.60;75.10
80540;DHT22;69869;48.036;15.780;2024-01-15T14:22:20;10.60;75.10
80540;DHT22;69869;48.036;15.780;2024-01-15T14:24:46;10.60;75.10
80540;DHT22;69869;48.036;15.780;2024-01-15T14:27:11;10.60;75.20
80540;DHT22;69869;48.036;15.780;2024-01-15T14:29:37;10.60;75.20
80540;DHT22;69869;48.036;15.780;2024-01-15T14:32:04;10.60;75.30
80540;DHT22;69869;48.036;15.780;2024-01-15T14:34:30;10.60;75.40
80540;DHT22;69869;48.036;15.780;2024-01-15T14:36:56;10.60;75.40
80540;DHT22;69869;48.036;15.780;2024-01-15T14:39:24;10.60;75.30
80540;DHT22;69869;48.036;15.780;2024-01-15T14:41:51;10.60;75.30
80540;DHT22;69869;48.036;15.780;2024-01-15T14:44:17;10.60;75.30
80540;DHT22;69869;48.036;15.780;2024-01-15T14:46:42;10.60;75.30
80540;DHT22;69869;48.036;15.780;2024-01-15T14:49:08;10.60;75.20
80540;DHT22;69869;48.036;15.780;2024-01-15T14:51:34;10.60;75.10
80540;DHT22;69869;48.036;15.780;2024-01-15T14:53:59;10.60;75.20
80540;DHT22;69869;48.036;15.780;2024-01-15T14:56:25;10.60;75.20
80540;DHT22;69869;48.036;15.780;2024-01-15T14:58:51;10.60;75.20
80540;DHT22;69869;48.036;15.780;2024-01-15T15:01:16;10.60;75.20
80540;DHT22;69869;48.036;15.780;2024-01-15T15:03:42;10.60;75.20
80540;DHT22;69869;48.036;15.780;2024-01-15T15:06:09;10.60;75.20
80540;DHT22;69869;48.036;15.780;2024-01-15T15:08:35;10.60;75.20
80540;DHT22;69869;48.036;15.780;2024-01-15T15:11:01;10.60;75.20
80540;DHT22;69869;48.036;15.780;2024-01-15T15:13:27;10.60;75.30
80540;DHT22;69869;48.036;15.780;2024-01-15T15:15:53;10.60;75.20
80540;DHT22;69869;48.036;15.780;2024-01-15T15:18:20;10.60;75.30
80540;DHT22;69869;48.036;15.780;2024-01-15T15:20:47;10.60;75.30
80540;DHT22;69869;48.036;15.780;2024-01-15T15:23:13;10.60;75.20
80540;DHT22;69869;48.036;15.780;2024-01-15T15:25:38;10.60;75.20
80540;DHT22;69869;48.036;15.780;2024-01-15T15:28:04;10.60;75.20